Virtual LH

Virtual LH. There's no better way to fly
Since 2013.



AIRPORT MAP

METAR AND TAF INFORMATION

METAR FOR UGTB
ADDS - METARS form results

(1548 UTC 19 June 2019)
Data provider http://aviationweather.gov/metar/data/
 
METAR text: UGTB 191530Z 31008KT 9999 FEW050CB 29/16 Q1011 NOSIG
Conditions at: UGTB (TBILISI/NOVO-AL , GE) observed 1530 UTC 19 June 2019
Temperature: 29.0°C (84°F)
Dewpoint: 16.0°C (61°F) [RH = 45%]
Pressure (altimeter): 29.85 inches Hg (1011.0 mb)
Winds: from the NW (310 degrees) at 9 MPH (8 knots; 4.1 m/s)
Visibility: 6 or more miles (10+ km)
Ceiling: at least 12,000 feet AGL
Clouds: few clouds at 5000 feet AGL
Weather: no significant weather observed at this time

METAR text: UGTB 191500Z 31008KT 9999 FEW050CB 30/16 Q1011 NOSIG
Conditions at: UGTB (TBILISI/NOVO-AL , GE) observed 1500 UTC 19 June 2019
Temperature: 30.0°C (86°F)
Dewpoint: 16.0°C (61°F) [RH = 43%]
Pressure (altimeter): 29.85 inches Hg (1011.0 mb)
Winds: from the NW (310 degrees) at 9 MPH (8 knots; 4.1 m/s)
Visibility: 6 or more miles (10+ km)
Ceiling: at least 12,000 feet AGL
Clouds: few clouds at 5000 feet AGL
Weather: no significant weather observed at this time

Forecast for: UGTB (TBILISI/NOVO-AL , GE)
Text: TAF UGTB 191100Z 1912/2012 VRB02KT 9999 SCT050CB TX32/2012Z TN20/2002Z
Forecast period: 1200 UTC 19 June 2019 to 1200 UTC 20 June 2019
Forecast type: FROM: standard forecast or significant change
Winds: variable direction winds at 2 MPH (2 knots; 1.0 m/s)
Visibility: 6 or more miles 10+ km)
Ceiling: at least 12,000 feet AGL
Clouds: scattered clouds at 5000 feet AGL
Weather: no significant weather forecast for this period
Text: TEMPO 1913/1919 VRB15KT TSRA
Forecast period: 1300 to 1900 UTC 19 June 2019
Forecast type: TEMPORARY: The following changes expected for less than half the time period
Winds: variable direction winds at 17 MPH (15 knots; 7.7 m/s)
Visibility: missing
Ceiling: unknown
Clouds: missing
Weather: TSRA  (rain associated with thunderstorm(s))

RUNWAY INFORMATION

Runway 13L Runway length 8202 ft Runway width 196 ft
Runway elevation 1621 ft Runway displaced threshold 0 ft Runway heading 133
Runway 31R Runway length 8202 ft Runway width 196 ft
Runway elevation 1572 ft Runway displaced threshold 0 ft Runway heading 313
Runway 13R Runway length 9843 ft Runway width 147 ft
Runway elevation 1624 ft Runway displaced threshold 0 ft Runway heading 136
Runway 31L Runway length 9843 ft Runway width 147 ft
Runway elevation 1558 ft Runway displaced threshold 0 ft Runway heading 316

AIRPORT FREQUENCIES

Type APP Name APP Frequency 127.2 MHZ
Type ATIS Name ATIS Frequency 132.8 MHZ
Type GND Name GND Frequency 119 MHZ
Type TWR Name TWR Frequency 128 MHZ

AIRPORT NEAR NAVIGATION AIDS